Providence, New York
Current Conditions -  °F | °C
As of 1:15 AM on Saturday 29 Nov 2014 (Local Time) from KNY0 Reporting Station
Broken Clouds Broken Clouds  
Wind Chill: -9°   Ceiling: 12000
Heat Index: -9°   Visibility: 10mi
Dew Point: -11°   Wind: 3mph
Humidity: 86%   Direction: 290°WNW
Pressure: 30.2"   Gusts: NA
Location:  43.1097°N, 74.0176°W
Report Text: KNY0 290615Z AUTO 29003KT 10SM SCT019 BKN120 M08/M10 A3020 RMK AO2 T10851105
Loading
Personal Weather Stations






























Interactive Weather Map New forecast layout! Learn more

10-Day Weather Forecast

Advertisements
Track Severe Weather on mobile